Terminal Aerodrome Forecast
Issued by NWS

Home | Current Version | Previous Version | Text Only | Print | Product List | Glossary On
Versions: 1 2 3 4 5 6 7 8 9 10 11 12 13 14 15 16 17 18
000
FTUS41 KBGM 301726
TAFITH
TAF
KITH 301726Z 3018/0118 VRB05KT P6SM BKN040
     FM302300 15005KT P6SM SCT050 BKN150
     FM010700 16008KT P6SM -RA SCT025 OVC040
     FM010900 16013KT P6SM -RA OVC025=

USA.gov is the U.S. government's official web portal to all federal, state and local government web resources and services.